sensor_id;sensor_type;location;lat;lon;timestamp;P1;durP1;ratioP1;P2;durP2;ratioP2
4638;SDS011;2332;38.646;-9.154;2022-09-09T00:04:40;23.90;;;6.87;;
4638;SDS011;2332;38.646;-9.154;2022-09-09T00:12:39;21.37;;;6.90;;
4638;SDS011;2332;38.646;-9.154;2022-09-09T00:15:27;24.50;;;7.73;;
4638;SDS011;2332;38.646;-9.154;2022-09-09T00:26:00;19.63;;;6.90;;
4638;SDS011;2332;38.646;-9.154;2022-09-09T00:28:30;21.20;;;6.47;;
4638;SDS011;2332;38.646;-9.154;2022-09-09T00:30:59;19.97;;;6.80;;
4638;SDS011;2332;38.646;-9.154;2022-09-09T00:33:33;13.30;;;6.90;;
4638;SDS011;2332;38.646;-9.154;2022-09-09T00:36:00;18.47;;;6.80;;
4638;SDS011;2332;38.646;-9.154;2022-09-09T00:41:21;16.40;;;6.77;;
4638;SDS011;2332;38.646;-9.154;2022-09-09T00:43:57;21.77;;;6.40;;
4638;SDS011;2332;38.646;-9.154;2022-09-09T00:46:36;16.20;;;7.50;;
4638;SDS011;2332;38.646;-9.154;2022-09-09T00:49:23;19.17;;;6.57;;
4638;SDS011;2332;38.646;-9.154;2022-09-09T00:57:21;18.47;;;6.63;;
4638;SDS011;2332;38.646;-9.154;2022-09-09T01:05:18;17.07;;;6.73;;
4638;SDS011;2332;38.646;-9.154;2022-09-09T01:07:49;20.93;;;6.60;;
4638;SDS011;2332;38.646;-9.154;2022-09-09T01:10:21;11.33;;;6.70;;
4638;SDS011;2332;38.646;-9.154;2022-09-09T01:13:13;15.83;;;6.00;;
4638;SDS011;2332;38.646;-9.154;2022-09-09T01:15:45;23.00;;;7.30;;
4638;SDS011;2332;38.646;-9.154;2022-09-09T01:18:12;14.90;;;6.57;;
4638;SDS011;2332;38.646;-9.154;2022-09-09T01:28:48;13.83;;;6.30;;
4638;SDS011;2332;38.646;-9.154;2022-09-09T01:31:19;20.77;;;5.97;;
4638;SDS011;2332;38.646;-9.154;2022-09-09T01:33:46;8.50;;;5.17;;
4638;SDS011;2332;38.646;-9.154;2022-09-09T01:36:14;15.60;;;6.30;;
4638;SDS011;2332;38.646;-9.154;2022-09-09T01:39:04;11.67;;;5.90;;
4638;SDS011;2332;38.646;-9.154;2022-09-09T01:41:30;12.07;;;5.47;;
4638;SDS011;2332;38.646;-9.154;2022-09-09T01:43:55;14.83;;;5.57;;
4638;SDS011;2332;38.646;-9.154;2022-09-09T01:46:22;10.37;;;4.67;;
4638;SDS011;2332;38.646;-9.154;2022-09-09T01:48:49;9.53;;;5.10;;
4638;SDS011;2332;38.646;-9.154;2022-09-09T01:51:16;14.07;;;5.63;;
4638;SDS011;2332;38.646;-9.154;2022-09-09T01:53:42;9.43;;;4.83;;
4638;SDS011;2332;38.646;-9.154;2022-09-09T02:02:13;9.93;;;4.67;;
4638;SDS011;2332;38.646;-9.154;2022-09-09T02:04:40;15.90;;;4.30;;
4638;SDS011;2332;38.646;-9.154;2022-09-09T02:07:41;13.73;;;4.30;;
4638;SDS011;2332;38.646;-9.154;2022-09-09T02:10:09;10.90;;;4.43;;
4638;SDS011;2332;38.646;-9.154;2022-09-09T02:12:39;14.70;;;4.50;;
4638;SDS011;2332;38.646;-9.154;2022-09-09T02:15:17;12.60;;;4.77;;
4638;SDS011;2332;38.646;-9.154;2022-09-09T02:17:50;13.13;;;4.20;;
4638;SDS011;2332;38.646;-9.154;2022-09-09T02:20:18;19.83;;;4.90;;
4638;SDS011;2332;38.646;-9.154;2022-09-09T02:22:45;19.10;;;4.30;;
4638;SDS011;2332;38.646;-9.154;2022-09-09T02:25:15;22.00;;;5.17;;
4638;SDS011;2332;38.646;-9.154;2022-09-09T02:27:43;13.97;;;5.30;;
4638;SDS011;2332;38.646;-9.154;2022-09-09T02:30:10;16.87;;;5.53;;
4638;SDS011;2332;38.646;-9.154;2022-09-09T02:32:36;14.00;;;5.27;;
4638;SDS011;2332;38.646;-9.154;2022-09-09T02:35:04;20.23;;;5.37;;
4638;SDS011;2332;38.646;-9.154;2022-09-09T02:37:49;12.70;;;5.40;;
4638;SDS011;2332;38.646;-9.154;2022-09-09T02:40:16;14.70;;;5.30;;
4638;SDS011;2332;38.646;-9.154;2022-09-09T02:42:43;24.93;;;6.00;;
4638;SDS011;2332;38.646;-9.154;2022-09-09T02:45:11;17.60;;;5.30;;
4638;SDS011;2332;38.646;-9.154;2022-09-09T02:48:22;12.53;;;5.10;;
4638;SDS011;2332;38.646;-9.154;2022-09-09T02:50:38;10.87;;;5.30;;
4638;SDS011;2332;38.646;-9.154;2022-09-09T02:53:23;12.43;;;4.57;;
4638;SDS011;2332;38.646;-9.154;2022-09-09T02:55:58;15.83;;;4.63;;
4638;SDS011;2332;38.646;-9.154;2022-09-09T02:58:25;11.37;;;4.23;;
4638;SDS011;2332;38.646;-9.154;2022-09-09T03:00:51;13.77;;;4.13;;
4638;SDS011;2332;38.646;-9.154;2022-09-09T03:03:18;16.67;;;5.07;;
4638;SDS011;2332;38.646;-9.154;2022-09-09T03:05:44;14.00;;;4.87;;
4638;SDS011;2332;38.646;-9.154;2022-09-09T03:08:11;19.40;;;5.73;;
4638;SDS011;2332;38.646;-9.154;2022-09-09T03:10:41;12.43;;;4.90;;
4638;SDS011;2332;38.646;-9.154;2022-09-09T03:13:06;14.23;;;5.40;;
4638;SDS011;2332;38.646;-9.154;2022-09-09T03:15:33;19.00;;;5.30;;
4638;SDS011;2332;38.646;-9.154;2022-09-09T03:18:02;13.23;;;5.60;;
4638;SDS011;2332;38.646;-9.154;2022-09-09T03:20:28;20.83;;;5.67;;
4638;SDS011;2332;38.646;-9.154;2022-09-09T03:22:54;19.07;;;5.07;;
4638;SDS011;2332;38.646;-9.154;2022-09-09T03:25:20;15.73;;;5.50;;
4638;SDS011;2332;38.646;-9.154;2022-09-09T03:27:48;17.73;;;5.63;;
4638;SDS011;2332;38.646;-9.154;2022-09-09T03:30:14;14.07;;;5.27;;
4638;SDS011;2332;38.646;-9.154;2022-09-09T03:32:40;18.07;;;6.07;;
4638;SDS011;2332;38.646;-9.154;2022-09-09T03:35:06;19.27;;;5.73;;
4638;SDS011;2332;38.646;-9.154;2022-09-09T03:37:32;18.40;;;5.80;;
4638;SDS011;2332;38.646;-9.154;2022-09-09T03:39:58;12.77;;;5.10;;
4638;SDS011;2332;38.646;-9.154;2022-09-09T03:42:25;14.83;;;4.90;;
4638;SDS011;2332;38.646;-9.154;2022-09-09T03:44:50;12.60;;;4.90;;
4638;SDS011;2332;38.646;-9.154;2022-09-09T03:47:17;12.97;;;4.10;;
4638;SDS011;2332;38.646;-9.154;2022-09-09T03:49:43;15.63;;;5.17;;
4638;SDS011;2332;38.646;-9.154;2022-09-09T03:52:09;13.50;;;4.20;;
4638;SDS011;2332;38.646;-9.154;2022-09-09T03:54:34;9.60;;;4.00;;
4638;SDS011;2332;38.646;-9.154;2022-09-09T03:57:00;8.43;;;3.20;;
4638;SDS011;2332;38.646;-9.154;2022-09-09T03:59:26;8.17;;;3.80;;
4638;SDS011;2332;38.646;-9.154;2022-09-09T04:01:52;8.60;;;3.40;;
4638;SDS011;2332;38.646;-9.154;2022-09-09T04:04:18;8.80;;;3.60;;
4638;SDS011;2332;38.646;-9.154;2022-09-09T04:06:45;14.87;;;4.20;;
4638;SDS011;2332;38.646;-9.154;2022-09-09T04:09:11;11.83;;;3.93;;
4638;SDS011;2332;38.646;-9.154;2022-09-09T04:11:36;7.70;;;3.37;;
4638;SDS011;2332;38.646;-9.154;2022-09-09T04:14:02;10.47;;;4.03;;
4638;SDS011;2332;38.646;-9.154;2022-09-09T04:16:29;14.40;;;4.10;;
4638;SDS011;2332;38.646;-9.154;2022-09-09T04:18:54;16.80;;;4.20;;
4638;SDS011;2332;38.646;-9.154;2022-09-09T04:21:21;16.37;;;4.80;;
4638;SDS011;2332;38.646;-9.154;2022-09-09T04:23:46;16.77;;;4.07;;
4638;SDS011;2332;38.646;-9.154;2022-09-09T04:26:12;10.73;;;4.60;;
4638;SDS011;2332;38.646;-9.154;2022-09-09T04:28:38;15.77;;;4.90;;
4638;SDS011;2332;38.646;-9.154;2022-09-09T04:31:07;9.60;;;4.20;;
4638;SDS011;2332;38.646;-9.154;2022-09-09T04:33:34;16.40;;;4.43;;
4638;SDS011;2332;38.646;-9.154;2022-09-09T04:36:00;10.03;;;3.73;;
4638;SDS011;2332;38.646;-9.154;2022-09-09T04:38:26;8.07;;;3.80;;
4638;SDS011;2332;38.646;-9.154;2022-09-09T04:40:52;6.13;;;3.57;;
4638;SDS011;2332;38.646;-9.154;2022-09-09T04:43:19;5.50;;;3.03;;
4638;SDS011;2332;38.646;-9.154;2022-09-09T04:45:49;8.80;;;2.73;;
4638;SDS011;2332;38.646;-9.154;2022-09-09T04:48:19;7.17;;;2.60;;
4638;SDS011;2332;38.646;-9.154;2022-09-09T04:50:55;12.93;;;2.90;;
4638;SDS011;2332;38.646;-9.154;2022-09-09T04:53:22;7.53;;;2.50;;
4638;SDS011;2332;38.646;-9.154;2022-09-09T04:55:48;3.30;;;2.07;;
4638;SDS011;2332;38.646;-9.154;2022-09-09T04:58:14;5.70;;;2.33;;
4638;SDS011;2332;38.646;-9.154;2022-09-09T05:00:39;6.70;;;1.90;;
4638;SDS011;2332;38.646;-9.154;2022-09-09T05:03:05;4.43;;;2.13;;
4638;SDS011;2332;38.646;-9.154;2022-09-09T05:05:32;7.43;;;2.20;;
4638;SDS011;2332;38.646;-9.154;2022-09-09T05:08:02;12.50;;;2.27;;
4638;SDS011;2332;38.646;-9.154;2022-09-09T05:10:28;8.07;;;2.63;;
4638;SDS011;2332;38.646;-9.154;2022-09-09T05:12:54;1.83;;;1.60;;
4638;SDS011;2332;38.646;-9.154;2022-09-09T05:15:19;4.47;;;1.77;;
4638;SDS011;2332;38.646;-9.154;2022-09-09T05:17:46;3.60;;;1.60;;
4638;SDS011;2332;38.646;-9.154;2022-09-09T05:20:11;4.43;;;1.97;;
4638;SDS011;2332;38.646;-9.154;2022-09-09T05:22:37;6.67;;;2.60;;
4638;SDS011;2332;38.646;-9.154;2022-09-09T05:25:04;1.70;;;1.60;;
4638;SDS011;2332;38.646;-9.154;2022-09-09T05:27:36;1.90;;;1.20;;
4638;SDS011;2332;38.646;-9.154;2022-09-09T05:30:02;2.57;;;1.37;;
4638;SDS011;2332;38.646;-9.154;2022-09-09T05:32:31;1.60;;;1.30;;
4638;SDS011;2332;38.646;-9.154;2022-09-09T05:34:59;2.93;;;1.57;;
4638;SDS011;2332;38.646;-9.154;2022-09-09T05:37:24;1.53;;;1.03;;
4638;SDS011;2332;38.646;-9.154;2022-09-09T05:39:53;3.90;;;1.80;;
4638;SDS011;2332;38.646;-9.154;2022-09-09T05:42:18;1.40;;;1.30;;
4638;SDS011;2332;38.646;-9.154;2022-09-09T05:44:44;3.83;;;1.67;;
4638;SDS011;2332;38.646;-9.154;2022-09-09T05:47:10;2.00;;;1.60;;
4638;SDS011;2332;38.646;-9.154;2022-09-09T05:49:36;3.47;;;1.50;;
4638;SDS011;2332;38.646;-9.154;2022-09-09T05:52:02;4.00;;;1.67;;
4638;SDS011;2332;38.646;-9.154;2022-09-09T05:54:31;3.03;;;1.70;;
4638;SDS011;2332;38.646;-9.154;2022-09-09T05:56:57;2.70;;;1.40;;
4638;SDS011;2332;38.646;-9.154;2022-09-09T05:59:24;2.77;;;1.70;;
4638;SDS011;2332;38.646;-9.154;2022-09-09T06:01:49;1.30;;;1.20;;
4638;SDS011;2332;38.646;-9.154;2022-09-09T06:04:15;1.87;;;1.73;;
4638;SDS011;2332;38.646;-9.154;2022-09-09T06:06:41;5.20;;;2.20;;
4638;SDS011;2332;38.646;-9.154;2022-09-09T06:09:07;3.53;;;2.40;;
4638;SDS011;2332;38.646;-9.154;2022-09-09T06:11:35;4.77;;;2.57;;
4638;SDS011;2332;38.646;-9.154;2022-09-09T06:14:02;4.90;;;2.47;;
4638;SDS011;2332;38.646;-9.154;2022-09-09T06:16:28;3.00;;;2.60;;
4638;SDS011;2332;38.646;-9.154;2022-09-09T06:18:55;5.20;;;2.67;;
4638;SDS011;2332;38.646;-9.154;2022-09-09T06:21:27;3.00;;;2.80;;
4638;SDS011;2332;38.646;-9.154;2022-09-09T06:23:55;5.10;;;2.03;;
4638;SDS011;2332;38.646;-9.154;2022-09-09T06:26:25;6.37;;;2.70;;
4638;SDS011;2332;38.646;-9.154;2022-09-09T06:28:52;5.07;;;2.70;;
4638;SDS011;2332;38.646;-9.154;2022-09-09T06:31:20;3.37;;;2.27;;
4638;SDS011;2332;38.646;-9.154;2022-09-09T06:33:48;9.23;;;2.13;;
4638;SDS011;2332;38.646;-9.154;2022-09-09T06:36:18;3.30;;;2.17;;
4638;SDS011;2332;38.646;-9.154;2022-09-09T06:38:45;3.73;;;1.90;;
4638;SDS011;2332;38.646;-9.154;2022-09-09T06:41:11;5.27;;;3.30;;
4638;SDS011;2332;38.646;-9.154;2022-09-09T06:43:38;6.60;;;3.80;;
4638;SDS011;2332;38.646;-9.154;2022-09-09T06:46:14;3.10;;;2.80;;
4638;SDS011;2332;38.646;-9.154;2022-09-09T06:48:41;6.77;;;2.20;;
4638;SDS011;2332;38.646;-9.154;2022-09-09T06:51:30;4.63;;;2.27;;
4638;SDS011;2332;38.646;-9.154;2022-09-09T06:53:56;2.30;;;2.10;;
4638;SDS011;2332;38.646;-9.154;2022-09-09T06:58:53;6.33;;;2.80;;
4638;SDS011;2332;38.646;-9.154;2022-09-09T07:01:24;2.83;;;2.43;;
4638;SDS011;2332;38.646;-9.154;2022-09-09T07:03:52;3.73;;;2.60;;
4638;SDS011;2332;38.646;-9.154;2022-09-09T07:06:23;2.27;;;2.17;;
4638;SDS011;2332;38.646;-9.154;2022-09-09T07:08:53;4.77;;;2.70;;
4638;SDS011;2332;38.646;-9.154;2022-09-09T07:11:21;2.37;;;2.10;;
4638;SDS011;2332;38.646;-9.154;2022-09-09T07:13:48;7.03;;;2.87;;
4638;SDS011;2332;38.646;-9.154;2022-09-09T07:16:15;4.80;;;2.53;;
4638;SDS011;2332;38.646;-9.154;2022-09-09T07:18:42;5.97;;;3.10;;
4638;SDS011;2332;38.646;-9.154;2022-09-09T07:21:09;3.90;;;3.10;;
4638;SDS011;2332;38.646;-9.154;2022-09-09T07:23:35;8.00;;;3.30;;
4638;SDS011;2332;38.646;-9.154;2022-09-09T07:26:01;4.30;;;3.53;;
4638;SDS011;2332;38.646;-9.154;2022-09-09T07:28:28;3.20;;;3.00;;
4638;SDS011;2332;38.646;-9.154;2022-09-09T07:31:00;3.40;;;3.10;;
4638;SDS011;2332;38.646;-9.154;2022-09-09T07:33:27;3.33;;;2.90;;
4638;SDS011;2332;38.646;-9.154;2022-09-09T07:36:02;5.90;;;3.20;;
4638;SDS011;2332;38.646;-9.154;2022-09-09T07:38:29;5.23;;;2.83;;
4638;SDS011;2332;38.646;-9.154;2022-09-09T07:41:08;4.27;;;2.40;;
4638;SDS011;2332;38.646;-9.154;2022-09-09T07:43:40;10.13;;;2.20;;
4638;SDS011;2332;38.646;-9.154;2022-09-09T07:46:07;3.73;;;2.00;;
4638;SDS011;2332;38.646;-9.154;2022-09-09T07:48:33;4.20;;;2.53;;
4638;SDS011;2332;38.646;-9.154;2022-09-09T07:51:10;3.30;;;1.80;;
4638;SDS011;2332;38.646;-9.154;2022-09-09T07:53:40;2.40;;;1.90;;
4638;SDS011;2332;38.646;-9.154;2022-09-09T07:56:09;6.23;;;2.10;;
4638;SDS011;2332;38.646;-9.154;2022-09-09T07:58:37;2.47;;;1.80;;
4638;SDS011;2332;38.646;-9.154;2022-09-09T08:01:10;2.90;;;1.53;;
4638;SDS011;2332;38.646;-9.154;2022-09-09T08:03:38;3.70;;;1.77;;
4638;SDS011;2332;38.646;-9.154;2022-09-09T08:06:04;1.73;;;1.60;;
4638;SDS011;2332;38.646;-9.154;2022-09-09T08:08:32;1.73;;;1.63;;
4638;SDS011;2332;38.646;-9.154;2022-09-09T08:11:05;1.50;;;1.40;;
4638;SDS011;2332;38.646;-9.154;2022-09-09T08:13:34;1.40;;;1.40;;
4638;SDS011;2332;38.646;-9.154;2022-09-09T08:16:07;2.60;;;1.40;;
4638;SDS011;2332;38.646;-9.154;2022-09-09T08:18:37;3.30;;;1.63;;
4638;SDS011;2332;38.646;-9.154;2022-09-09T08:21:13;1.70;;;1.60;;
4638;SDS011;2332;38.646;-9.154;2022-09-09T08:23:42;2.23;;;1.63;;
4638;SDS011;2332;38.646;-9.154;2022-09-09T08:26:17;4.87;;;1.67;;
4638;SDS011;2332;38.646;-9.154;2022-09-09T08:28:51;2.60;;;2.33;;
4638;SDS011;2332;38.646;-9.154;2022-09-09T08:33:45;3.33;;;1.33;;
4638;SDS011;2332;38.646;-9.154;2022-09-09T08:36:15;7.30;;;1.97;;
4638;SDS011;2332;38.646;-9.154;2022-09-09T08:38:43;4.40;;;1.80;;
4638;SDS011;2332;38.646;-9.154;2022-09-09T08:43:41;2.17;;;1.67;;
4638;SDS011;2332;38.646;-9.154;2022-09-09T08:49:31;3.40;;;1.90;;
4638;SDS011;2332;38.646;-9.154;2022-09-09T08:52:02;4.23;;;1.90;;
4638;SDS011;2332;38.646;-9.154;2022-09-09T08:54:35;2.03;;;1.90;;
4638;SDS011;2332;38.646;-9.154;2022-09-09T08:57:11;2.00;;;1.83;;
4638;SDS011;2332;38.646;-9.154;2022-09-09T08:59:40;4.30;;;2.40;;
4638;SDS011;2332;38.646;-9.154;2022-09-09T09:09:53;2.80;;;2.53;;
4638;SDS011;2332;38.646;-9.154;2022-09-09T09:12:26;2.30;;;2.20;;
4638;SDS011;2332;38.646;-9.154;2022-09-09T09:14:56;6.53;;;2.60;;
4638;SDS011;2332;38.646;-9.154;2022-09-09T09:17:24;2.70;;;2.10;;
4638;SDS011;2332;38.646;-9.154;2022-09-09T09:19:52;3.03;;;1.70;;
4638;SDS011;2332;38.646;-9.154;2022-09-09T09:28:03;5.40;;;1.43;;
4638;SDS011;2332;38.646;-9.154;2022-09-09T09:30:40;3.63;;;1.37;;
4638;SDS011;2332;38.646;-9.154;2022-09-09T09:35:42;3.33;;;1.53;;
4638;SDS011;2332;38.646;-9.154;2022-09-09T09:38:18;2.90;;;1.57;;
4638;SDS011;2332;38.646;-9.154;2022-09-09T09:40:51;4.00;;;1.50;;
4638;SDS011;2332;38.646;-9.154;2022-09-09T09:43:29;1.87;;;1.67;;
4638;SDS011;2332;38.646;-9.154;2022-09-09T09:45:56;2.03;;;1.50;;
4638;SDS011;2332;38.646;-9.154;2022-09-09T09:48:23;3.10;;;1.50;;
4638;SDS011;2332;38.646;-9.154;2022-09-09T09:50:55;6.20;;;1.20;;
4638;SDS011;2332;38.646;-9.154;2022-09-09T09:53:29;1.37;;;1.13;;
4638;SDS011;2332;38.646;-9.154;2022-09-09T09:56:00;7.20;;;1.83;;
4638;SDS011;2332;38.646;-9.154;2022-09-09T09:58:30;1.73;;;1.30;;
4638;SDS011;2332;38.646;-9.154;2022-09-09T10:00:58;3.07;;;1.23;;
4638;SDS011;2332;38.646;-9.154;2022-09-09T10:03:26;2.60;;;1.20;;
4638;SDS011;2332;38.646;-9.154;2022-09-09T10:05:53;1.40;;;1.23;;
4638;SDS011;2332;38.646;-9.154;2022-09-09T10:08:21;3.37;;;1.50;;
4638;SDS011;2332;38.646;-9.154;2022-09-09T10:10:56;6.93;;;1.40;;
4638;SDS011;2332;38.646;-9.154;2022-09-09T10:16:10;4.10;;;1.37;;
4638;SDS011;2332;38.646;-9.154;2022-09-09T10:37:51;1.10;;;1.00;;
4638;SDS011;2332;38.646;-9.154;2022-09-09T10:43:14;2.60;;;1.10;;
4638;SDS011;2332;38.646;-9.154;2022-09-09T10:48:38;6.00;;;1.87;;
4638;SDS011;2332;38.646;-9.154;2022-09-09T10:54:03;1.13;;;0.80;;
4638;SDS011;2332;38.646;-9.154;2022-09-09T10:56:31;1.80;;;0.90;;
4638;SDS011;2332;38.646;-9.154;2022-09-09T10:59:07;1.30;;;1.20;;
4638;SDS011;2332;38.646;-9.154;2022-09-09T11:06:46;2.90;;;1.63;;
4638;SDS011;2332;38.646;-9.154;2022-09-09T11:09:18;2.80;;;1.40;;
4638;SDS011;2332;38.646;-9.154;2022-09-09T11:11:53;5.83;;;1.47;;
4638;SDS011;2332;38.646;-9.154;2022-09-09T11:17:24;5.33;;;1.30;;
4638;SDS011;2332;38.646;-9.154;2022-09-09T11:19:53;2.30;;;1.27;;
4638;SDS011;2332;38.646;-9.154;2022-09-09T11:25:34;2.57;;;1.30;;
4638;SDS011;2332;38.646;-9.154;2022-09-09T11:42:23;2.00;;;1.27;;
4638;SDS011;2332;38.646;-9.154;2022-09-09T11:44:49;2.97;;;1.10;;
4638;SDS011;2332;38.646;-9.154;2022-09-09T11:47:36;2.97;;;1.20;;
4638;SDS011;2332;38.646;-9.154;2022-09-09T11:55:27;1.00;;;0.90;;
4638;SDS011;2332;38.646;-9.154;2022-09-09T12:00:36;2.93;;;1.33;;
4638;SDS011;2332;38.646;-9.154;2022-09-09T12:03:03;4.93;;;1.50;;
4638;SDS011;2332;38.646;-9.154;2022-09-09T12:05:39;2.07;;;1.10;;
4638;SDS011;2332;38.646;-9.154;2022-09-09T12:08:07;3.67;;;1.70;;
4638;SDS011;2332;38.646;-9.154;2022-09-09T12:10:41;3.07;;;1.50;;
4638;SDS011;2332;38.646;-9.154;2022-09-09T12:15:51;4.37;;;1.10;;
4638;SDS011;2332;38.646;-9.154;2022-09-09T12:18:22;1.47;;;1.20;;
4638;SDS011;2332;38.646;-9.154;2022-09-09T12:21:02;0.90;;;0.90;;
4638;SDS011;2332;38.646;-9.154;2022-09-09T12:23:42;1.10;;;1.00;;
4638;SDS011;2332;38.646;-9.154;2022-09-09T12:26:21;2.20;;;0.90;;
4638;SDS011;2332;38.646;-9.154;2022-09-09T12:34:37;2.23;;;1.13;;
4638;SDS011;2332;38.646;-9.154;2022-09-09T12:40:05;2.83;;;1.07;;
4638;SDS011;2332;38.646;-9.154;2022-09-09T12:42:30;3.43;;;1.20;;
4638;SDS011;2332;38.646;-9.154;2022-09-09T12:44:59;3.60;;;1.30;;
4638;SDS011;2332;38.646;-9.154;2022-09-09T12:47:32;3.83;;;1.00;;
4638;SDS011;2332;38.646;-9.154;2022-09-09T12:50:11;3.80;;;1.20;;
4638;SDS011;2332;38.646;-9.154;2022-09-09T12:52:44;1.40;;;1.30;;
4638;SDS011;2332;38.646;-9.154;2022-09-09T12:55:16;1.10;;;0.80;;
4638;SDS011;2332;38.646;-9.154;2022-09-09T12:58:03;3.27;;;1.07;;
4638;SDS011;2332;38.646;-9.154;2022-09-09T13:00:33;2.03;;;1.10;;
4638;SDS011;2332;38.646;-9.154;2022-09-09T13:03:00;2.90;;;1.20;;
4638;SDS011;2332;38.646;-9.154;2022-09-09T13:05:44;10.80;;;1.43;;
4638;SDS011;2332;38.646;-9.154;2022-09-09T13:08:12;2.30;;;1.37;;
4638;SDS011;2332;38.646;-9.154;2022-09-09T13:13:50;2.97;;;1.00;;
4638;SDS011;2332;38.646;-9.154;2022-09-09T13:16:00;5.40;;;1.00;;
4638;SDS011;2332;38.646;-9.154;2022-09-09T13:18:28;2.87;;;0.93;;
4638;SDS011;2332;38.646;-9.154;2022-09-09T13:20:58;2.20;;;1.03;;
4638;SDS011;2332;38.646;-9.154;2022-09-09T13:23:34;3.93;;;1.10;;
4638;SDS011;2332;38.646;-9.154;2022-09-09T13:26:03;0.90;;;0.90;;
4638;SDS011;2332;38.646;-9.154;2022-09-09T13:28:31;5.80;;;1.17;;
4638;SDS011;2332;38.646;-9.154;2022-09-09T13:31:02;2.10;;;1.17;;
4638;SDS011;2332;38.646;-9.154;2022-09-09T13:33:36;1.00;;;1.00;;
4638;SDS011;2332;38.646;-9.154;2022-09-09T13:36:03;2.87;;;1.03;;
4638;SDS011;2332;38.646;-9.154;2022-09-09T13:38:32;1.10;;;0.87;;
4638;SDS011;2332;38.646;-9.154;2022-09-09T13:41:00;4.60;;;1.20;;
4638;SDS011;2332;38.646;-9.154;2022-09-09T13:43:51;3.60;;;0.80;;
4638;SDS011;2332;38.646;-9.154;2022-09-09T13:51:35;3.23;;;1.20;;
4638;SDS011;2332;38.646;-9.154;2022-09-09T13:54:12;3.57;;;1.37;;
4638;SDS011;2332;38.646;-9.154;2022-09-09T13:56:39;2.93;;;1.43;;
4638;SDS011;2332;38.646;-9.154;2022-09-09T13:59:08;1.73;;;0.97;;
4638;SDS011;2332;38.646;-9.154;2022-09-09T14:01:36;3.83;;;1.53;;
4638;SDS011;2332;38.646;-9.154;2022-09-09T14:04:02;4.80;;;1.13;;
4638;SDS011;2332;38.646;-9.154;2022-09-09T14:06:28;2.93;;;0.80;;
4638;SDS011;2332;38.646;-9.154;2022-09-09T14:08:54;1.10;;;1.10;;
4638;SDS011;2332;38.646;-9.154;2022-09-09T14:11:24;0.90;;;0.90;;
4638;SDS011;2332;38.646;-9.154;2022-09-09T14:13:49;6.10;;;1.50;;
4638;SDS011;2332;38.646;-9.154;2022-09-09T14:16:15;3.43;;;1.10;;
4638;SDS011;2332;38.646;-9.154;2022-09-09T14:18:42;5.10;;;0.90;;
4638;SDS011;2332;38.646;-9.154;2022-09-09T14:21:09;1.10;;;1.00;;
4638;SDS011;2332;38.646;-9.154;2022-09-09T14:23:34;2.00;;;1.17;;
4638;SDS011;2332;38.646;-9.154;2022-09-09T14:26:00;6.87;;;1.00;;
4638;SDS011;2332;38.646;-9.154;2022-09-09T14:28:26;1.40;;;0.70;;
4638;SDS011;2332;38.646;-9.154;2022-09-09T14:30:53;5.13;;;0.70;;
4638;SDS011;2332;38.646;-9.154;2022-09-09T14:33:19;3.90;;;0.97;;
4638;SDS011;2332;38.646;-9.154;2022-09-09T14:35:44;5.67;;;0.90;;
4638;SDS011;2332;38.646;-9.154;2022-09-09T14:38:10;1.87;;;0.93;;
4638;SDS011;2332;38.646;-9.154;2022-09-09T14:40:36;6.07;;;1.30;;
4638;SDS011;2332;38.646;-9.154;2022-09-09T14:43:03;1.60;;;0.90;;
4638;SDS011;2332;38.646;-9.154;2022-09-09T14:45:29;2.70;;;0.97;;
4638;SDS011;2332;38.646;-9.154;2022-09-09T14:47:55;2.90;;;1.50;;
4638;SDS011;2332;38.646;-9.154;2022-09-09T14:50:21;2.63;;;0.90;;
4638;SDS011;2332;38.646;-9.154;2022-09-09T14:52:47;2.40;;;1.10;;
4638;SDS011;2332;38.646;-9.154;2022-09-09T14:55:13;4.33;;;0.90;;
4638;SDS011;2332;38.646;-9.154;2022-09-09T14:57:40;3.77;;;2.40;;
4638;SDS011;2332;38.646;-9.154;2022-09-09T15:00:06;1.23;;;1.00;;
4638;SDS011;2332;38.646;-9.154;2022-09-09T15:02:33;3.33;;;1.03;;
4638;SDS011;2332;38.646;-9.154;2022-09-09T15:04:59;4.80;;;0.90;;
4638;SDS011;2332;38.646;-9.154;2022-09-09T15:07:25;1.07;;;0.90;;
4638;SDS011;2332;38.646;-9.154;2022-09-09T15:09:51;2.10;;;0.60;;
4638;SDS011;2332;38.646;-9.154;2022-09-09T15:12:18;1.40;;;0.83;;
4638;SDS011;2332;38.646;-9.154;2022-09-09T15:14:44;4.77;;;1.00;;
4638;SDS011;2332;38.646;-9.154;2022-09-09T15:17:10;2.90;;;0.80;;
4638;SDS011;2332;38.646;-9.154;2022-09-09T15:19:36;3.50;;;0.87;;
4638;SDS011;2332;38.646;-9.154;2022-09-09T15:22:02;1.10;;;0.90;;
4638;SDS011;2332;38.646;-9.154;2022-09-09T15:24:30;3.47;;;1.30;;
4638;SDS011;2332;38.646;-9.154;2022-09-09T15:26:55;3.27;;;1.60;;
4638;SDS011;2332;38.646;-9.154;2022-09-09T15:29:22;3.13;;;1.03;;
4638;SDS011;2332;38.646;-9.154;2022-09-09T15:31:48;3.07;;;1.17;;
4638;SDS011;2332;38.646;-9.154;2022-09-09T15:34:17;3.53;;;1.20;;
4638;SDS011;2332;38.646;-9.154;2022-09-09T15:36:44;4.30;;;0.83;;
4638;SDS011;2332;38.646;-9.154;2022-09-09T15:39:15;2.73;;;0.90;;
4638;SDS011;2332;38.646;-9.154;2022-09-09T15:41:42;9.33;;;1.40;;
4638;SDS011;2332;38.646;-9.154;2022-09-09T15:44:09;1.67;;;0.90;;
4638;SDS011;2332;38.646;-9.154;2022-09-09T15:46:49;3.10;;;0.90;;
4638;SDS011;2332;38.646;-9.154;2022-09-09T15:49:19;2.90;;;1.10;;
4638;SDS011;2332;38.646;-9.154;2022-09-09T15:51:51;4.13;;;1.00;;
4638;SDS011;2332;38.646;-9.154;2022-09-09T15:54:21;2.70;;;1.20;;
4638;SDS011;2332;38.646;-9.154;2022-09-09T15:56:54;2.10;;;0.87;;
4638;SDS011;2332;38.646;-9.154;2022-09-09T15:59:25;8.60;;;2.03;;
4638;SDS011;2332;38.646;-9.154;2022-09-09T16:01:51;5.37;;;1.87;;
4638;SDS011;2332;38.646;-9.154;2022-09-09T16:04:21;3.33;;;1.10;;
4638;SDS011;2332;38.646;-9.154;2022-09-09T16:06:51;3.63;;;1.30;;
4638;SDS011;2332;38.646;-9.154;2022-09-09T16:09:23;2.57;;;1.33;;
4638;SDS011;2332;38.646;-9.154;2022-09-09T16:11:50;5.53;;;1.43;;
4638;SDS011;2332;38.646;-9.154;2022-09-09T16:14:18;3.63;;;1.00;;
4638;SDS011;2332;38.646;-9.154;2022-09-09T16:16:44;5.23;;;1.60;;
4638;SDS011;2332;38.646;-9.154;2022-09-09T16:19:11;2.10;;;1.53;;
4638;SDS011;2332;38.646;-9.154;2022-09-09T16:21:44;2.20;;;1.30;;
4638;SDS011;2332;38.646;-9.154;2022-09-09T16:24:12;3.13;;;1.53;;
4638;SDS011;2332;38.646;-9.154;2022-09-09T16:26:40;7.40;;;1.67;;
4638;SDS011;2332;38.646;-9.154;2022-09-09T16:29:09;7.30;;;1.43;;
4638;SDS011;2332;38.646;-9.154;2022-09-09T16:31:36;1.33;;;1.07;;
4638;SDS011;2332;38.646;-9.154;2022-09-09T16:34:01;1.53;;;0.70;;
4638;SDS011;2332;38.646;-9.154;2022-09-09T16:36:32;0.83;;;0.83;;
4638;SDS011;2332;38.646;-9.154;2022-09-09T16:39:01;0.70;;;0.70;;
4638;SDS011;2332;38.646;-9.154;2022-09-09T16:41:29;4.07;;;1.27;;
4638;SDS011;2332;38.646;-9.154;2022-09-09T16:43:55;2.20;;;0.90;;
4638;SDS011;2332;38.646;-9.154;2022-09-09T16:46:22;5.87;;;0.90;;
4638;SDS011;2332;38.646;-9.154;2022-09-09T16:48:49;2.50;;;1.10;;
4638;SDS011;2332;38.646;-9.154;2022-09-09T16:51:16;1.13;;;0.80;;
4638;SDS011;2332;38.646;-9.154;2022-09-09T16:53:49;2.27;;;0.70;;
4638;SDS011;2332;38.646;-9.154;2022-09-09T16:56:16;1.10;;;0.80;;
4638;SDS011;2332;38.646;-9.154;2022-09-09T16:58:44;1.33;;;0.80;;
4638;SDS011;2332;38.646;-9.154;2022-09-09T17:01:15;0.90;;;0.90;;
4638;SDS011;2332;38.646;-9.154;2022-09-09T17:03:40;0.87;;;0.87;;
4638;SDS011;2332;38.646;-9.154;2022-09-09T17:06:10;2.37;;;0.70;;
4638;SDS011;2332;38.646;-9.154;2022-09-09T17:08:37;1.27;;;0.73;;
4638;SDS011;2332;38.646;-9.154;2022-09-09T17:11:13;0.70;;;0.70;;
4638;SDS011;2332;38.646;-9.154;2022-09-09T17:13:43;1.10;;;0.90;;
4638;SDS011;2332;38.646;-9.154;2022-09-09T17:16:10;1.70;;;0.93;;
4638;SDS011;2332;38.646;-9.154;2022-09-09T17:18:37;3.83;;;0.70;;
4638;SDS011;2332;38.646;-9.154;2022-09-09T17:21:04;2.70;;;0.90;;
4638;SDS011;2332;38.646;-9.154;2022-09-09T17:23:32;1.20;;;0.63;;
4638;SDS011;2332;38.646;-9.154;2022-09-09T17:25:59;0.83;;;0.80;;
4638;SDS011;2332;38.646;-9.154;2022-09-09T17:28:25;3.60;;;0.97;;
4638;SDS011;2332;38.646;-9.154;2022-09-09T17:30:56;1.30;;;0.80;;
4638;SDS011;2332;38.646;-9.154;2022-09-09T17:33:23;1.67;;;1.20;;
4638;SDS011;2332;38.646;-9.154;2022-09-09T17:35:51;0.87;;;0.77;;
4638;SDS011;2332;38.646;-9.154;2022-09-09T17:38:17;1.10;;;1.00;;
4638;SDS011;2332;38.646;-9.154;2022-09-09T17:40:47;1.43;;;0.90;;
4638;SDS011;2332;38.646;-9.154;2022-09-09T17:43:13;1.77;;;0.90;;
4638;SDS011;2332;38.646;-9.154;2022-09-09T17:45:38;1.23;;;1.07;;